createdAt,value
2018-05-08T00:01:04.871Z,63.30
2018-05-08T00:03:30.895Z,63.30
2018-05-08T00:05:56.913Z,62.90
2018-05-08T00:08:22.937Z,63.30
2018-05-08T00:10:48.930Z,63.20
2018-05-08T00:13:14.941Z,63.80
2018-05-08T00:15:40.921Z,63.30
2018-05-08T00:18:06.929Z,63.30
2018-05-08T00:20:32.917Z,63.20
2018-05-08T00:22:58.985Z,64.00
2018-05-08T00:25:24.977Z,63.90
2018-05-08T00:27:50.981Z,64.10
2018-05-08T00:30:16.961Z,63.30
2018-05-08T00:32:42.969Z,64.00
2018-05-08T00:35:08.948Z,63.10
2018-05-08T00:37:34.964Z,63.50
2018-05-08T00:40:00.964Z,63.50
2018-05-08T00:42:26.981Z,63.30
2018-05-08T00:44:52.966Z,63.80
2018-05-08T00:47:18.985Z,63.50
2018-05-08T00:49:44.973Z,63.60
2018-05-08T00:52:11.720Z,63.80
2018-05-08T00:54:44.515Z,64.10
2018-05-08T00:57:10.532Z,64.10
2018-05-08T00:59:36.526Z,64.40
2018-05-08T01:02:03.269Z,64.80
2018-05-08T01:04:30.004Z,63.70
2018-05-08T01:06:56.009Z,64.30
2018-05-08T01:09:21.992Z,64.20
2018-05-08T01:11:48.002Z,64.00
2018-05-08T01:14:13.972Z,64.90
2018-05-08T01:16:39.976Z,64.80
2018-05-08T01:19:05.963Z,64.80
2018-05-08T01:21:32.686Z,64.70
2018-05-08T01:23:58.680Z,64.80
2018-05-08T01:26:24.656Z,65.10
2018-05-08T01:28:50.661Z,64.30
2018-05-08T01:31:17.417Z,64.30
2018-05-08T01:33:44.158Z,65.20
2018-05-08T01:36:10.149Z,65.20
2018-05-08T01:38:36.158Z,65.00
2018-05-08T01:41:02.142Z,64.70
2018-05-08T01:43:28.145Z,65.20
2018-05-08T01:45:54.149Z,66.00
2018-05-08T01:48:20.926Z,65.70
2018-05-08T01:50:46.942Z,65.10
2018-05-08T01:53:13.672Z,65.60
2018-05-08T01:55:40.396Z,65.60
2018-05-08T01:58:06.389Z,65.00
2018-05-08T02:00:32.380Z,65.20
2018-05-08T02:02:59.102Z,66.00
2018-05-08T02:05:25.107Z,65.80
2018-05-08T02:07:51.110Z,65.60
2018-05-08T02:10:17.272Z,64.80
2018-05-08T02:12:44.008Z,64.90
2018-05-08T02:15:10.740Z,65.20
2018-05-08T02:17:37.464Z,65.00
2018-05-08T02:20:03.446Z,64.80
2018-05-08T02:22:29.457Z,65.20
2018-05-08T02:24:55.433Z,65.20
2018-05-08T02:27:21.391Z,65.20
2018-05-08T02:29:48.111Z,65.10
2018-05-08T02:32:14.089Z,65.00
2018-05-08T02:34:40.084Z,65.20
2018-05-08T02:37:06.812Z,65.50
2018-05-08T02:39:33.585Z,66.10
2018-05-08T02:41:59.560Z,66.10
2018-05-08T02:44:25.566Z,66.40
2018-05-08T02:46:51.556Z,65.70
2018-05-08T02:49:17.545Z,66.40
2018-05-08T02:51:44.265Z,66.40
2018-05-08T02:54:10.245Z,66.40
2018-05-08T02:56:36.241Z,66.70
2018-05-08T02:59:02.248Z,66.40
2018-05-08T03:01:28.997Z,66.60
2018-05-08T03:03:55.836Z,66.80
2018-05-08T03:06:22.561Z,67.60
2018-05-08T03:08:48.525Z,67.60
2018-05-08T03:11:14.525Z,67.40
2018-05-08T03:13:40.561Z,66.70
2018-05-08T03:16:06.553Z,67.00
2018-05-08T03:18:32.556Z,67.00
2018-05-08T03:20:58.560Z,66.30
2018-05-08T03:23:24.536Z,66.20
2018-05-08T03:25:50.549Z,66.70
2018-05-08T03:28:16.508Z,67.00
2018-05-08T03:30:42.505Z,66.60
2018-05-08T03:33:09.233Z,66.00
2018-05-08T03:35:35.233Z,66.00
2018-05-08T03:38:01.223Z,66.60
2018-05-08T03:40:27.245Z,67.60
2018-05-08T03:42:53.244Z,66.40
2018-05-08T03:45:19.993Z,66.30
2018-05-08T03:47:46.006Z,66.20
2018-05-08T03:50:12.739Z,66.60
2018-05-08T03:52:39.465Z,65.80
2018-05-08T03:55:05.444Z,65.80
2018-05-08T03:57:31.449Z,66.70
2018-05-08T03:59:57.441Z,66.60
2018-05-08T04:02:30.305Z,66.30
2018-05-08T04:05:02.422Z,66.30
2018-05-08T04:07:34.557Z,66.80
2018-05-08T04:10:00.536Z,67.40
2018-05-08T04:12:26.531Z,66.90
2018-05-08T04:14:52.529Z,67.10
2018-05-08T04:17:19.279Z,67.30
2018-05-08T04:19:46.092Z,67.30
2018-05-08T04:22:12.033Z,67.20
2018-05-08T04:24:39.506Z,66.90
2018-05-08T04:27:06.252Z,66.60
2018-05-08T04:29:32.964Z,67.20
2018-05-08T04:31:58.988Z,67.20
2018-05-08T04:34:24.997Z,66.40
2018-05-08T04:36:51.028Z,67.00
2018-05-08T04:39:16.992Z,67.00
2018-05-08T04:41:42.973Z,67.30
2018-05-08T04:44:08.981Z,66.70
2018-05-08T04:46:34.953Z,67.50
2018-05-08T04:49:01.684Z,66.90
2018-05-08T04:51:28.390Z,66.70
2018-05-08T04:53:54.413Z,66.70
2018-05-08T04:56:20.384Z,66.30
2018-05-08T04:58:46.376Z,66.60
2018-05-08T05:01:13.116Z,67.00
2018-05-08T05:03:39.120Z,67.00
2018-05-08T05:06:05.118Z,67.40
2018-05-08T05:08:31.138Z,66.10
2018-05-08T05:10:57.116Z,66.30
2018-05-08T05:13:23.261Z,65.30
2018-05-08T05:15:49.257Z,64.00
2018-05-08T05:18:16.748Z,63.20
2018-05-08T05:20:43.474Z,63.10
2018-05-08T05:23:10.216Z,63.40
2018-05-08T05:25:36.916Z,63.30
2018-05-08T05:28:02.898Z,63.20
2018-05-08T05:30:28.984Z,61.90
2018-05-08T05:32:54.959Z,61.10
2018-05-08T05:35:20.954Z,60.40
2018-05-08T05:37:46.944Z,60.90
2018-05-08T05:40:12.961Z,61.90
2018-05-08T05:42:39.040Z,62.00
2018-05-08T05:45:04.954Z,63.40
2018-05-08T05:47:31.041Z,63.20
2018-05-08T05:49:57.649Z,62.70
2018-05-08T05:52:23.861Z,62.00
2018-05-08T05:54:49.840Z,62.40
2018-05-08T05:57:15.859Z,63.10
2018-05-08T05:59:41.865Z,62.60
2018-05-08T06:02:07.848Z,62.30
2018-05-08T06:04:33.855Z,62.30
2018-05-08T06:06:59.907Z,62.30
2018-05-08T06:09:25.929Z,62.00
2018-05-08T06:11:52.004Z,61.90
2018-05-08T06:14:17.932Z,61.80
2018-05-08T06:16:43.940Z,61.30
2018-05-08T06:19:09.957Z,61.60
2018-05-08T06:21:35.974Z,60.60
2018-05-08T06:24:02.006Z,60.70
2018-05-08T06:26:27.964Z,61.00
2018-05-08T06:28:54.692Z,61.10
2018-05-08T06:31:21.473Z,62.30
2018-05-08T06:33:47.516Z,61.70
2018-05-08T06:36:13.539Z,61.00
2018-05-08T06:38:39.517Z,61.70
2018-05-08T06:41:06.565Z,61.90
2018-05-08T06:43:33.272Z,61.90
2018-05-08T06:45:59.304Z,61.90
2018-05-08T06:48:25.287Z,61.60
2018-05-08T06:50:51.284Z,61.90
2018-05-08T06:53:17.304Z,60.90
2018-05-08T06:55:43.308Z,60.90
2018-05-08T06:58:10.062Z,60.40
2018-05-08T07:00:36.044Z,60.40
2018-05-08T07:03:02.052Z,60.20
2018-05-08T07:05:28.081Z,59.60
2018-05-08T07:07:54.117Z,60.00
2018-05-08T07:10:20.089Z,59.80
2018-05-08T07:12:46.156Z,59.90
2018-05-08T07:15:12.184Z,58.10
2018-05-08T07:17:38.161Z,58.10
2018-05-08T07:20:04.157Z,58.10
2018-05-08T07:22:30.889Z,59.10
2018-05-08T07:24:56.886Z,58.60
2018-05-08T07:27:22.953Z,58.20
2018-05-08T07:29:49.681Z,57.90
2018-05-08T07:32:15.672Z,58.60
2018-05-08T07:34:41.665Z,57.90
2018-05-08T07:37:07.633Z,56.80
2018-05-08T07:39:33.652Z,57.20
2018-05-08T07:41:59.637Z,56.70
2018-05-08T07:44:25.646Z,56.70
2018-05-08T07:46:51.639Z,56.20
2018-05-08T07:49:19.116Z,56.90
2018-05-08T07:51:45.903Z,56.20
2018-05-08T07:54:12.696Z,54.70
2018-05-08T07:56:39.408Z,54.70
2018-05-08T07:59:05.410Z,54.60
2018-05-08T08:01:31.394Z,54.60
2018-05-08T08:03:57.394Z,54.90
2018-05-08T08:06:23.589Z,56.00
2018-05-08T08:08:49.574Z,55.60
2018-05-08T08:11:16.313Z,53.60
2018-05-08T08:13:42.313Z,53.70
2018-05-08T08:16:08.309Z,53.40
2018-05-08T08:18:34.378Z,52.80
2018-05-08T08:21:00.292Z,51.30
2018-05-08T08:23:27.045Z,50.90
2018-05-08T08:25:53.834Z,50.30
2018-05-08T08:28:19.830Z,50.30
2018-05-08T08:30:45.888Z,49.60
2018-05-08T08:33:12.637Z,50.30
2018-05-08T08:35:38.656Z,50.30
2018-05-08T08:38:04.647Z,50.30
2018-05-08T08:40:30.636Z,48.90
2018-05-08T08:42:57.376Z,50.40
2018-05-08T08:45:24.097Z,51.30
2018-05-08T08:47:50.202Z,51.40
2018-05-08T08:50:16.149Z,51.10
2018-05-08T08:52:42.144Z,49.90
2018-05-08T08:55:08.112Z,49.00
2018-05-08T08:57:34.822Z,47.70
2018-05-08T09:00:00.807Z,47.60
2018-05-08T09:02:26.780Z,48.30
2018-05-08T09:04:52.799Z,46.50
2018-05-08T09:07:18.771Z,48.30
2018-05-08T09:09:44.749Z,47.30
2018-05-08T09:12:10.749Z,45.70
2018-05-08T09:14:36.798Z,45.50
2018-05-08T09:17:03.575Z,43.20
2018-05-08T09:19:29.557Z,44.00
2018-05-08T09:21:55.573Z,43.80
2018-05-08T09:24:22.316Z,42.50
2018-05-08T09:26:48.297Z,42.50
2018-05-08T09:29:14.326Z,41.30
2018-05-08T09:31:40.304Z,41.60
2018-05-08T09:34:07.017Z,41.20
2018-05-08T09:36:33.001Z,41.70
2018-05-08T09:38:59.097Z,40.90
2018-05-08T09:41:25.061Z,39.60
2018-05-08T09:43:51.057Z,41.30
2018-05-08T09:46:17.030Z,41.00
2018-05-08T09:48:43.037Z,41.10
2018-05-08T09:51:09.001Z,40.00
2018-05-08T09:53:34.993Z,38.40
2018-05-08T09:56:00.960Z,39.00
2018-05-08T09:58:27.715Z,37.90
2018-05-08T10:00:53.760Z,37.80
2018-05-08T10:03:19.731Z,36.60
2018-05-08T10:05:45.704Z,35.40
2018-05-08T10:08:11.710Z,37.00
2018-05-08T10:10:37.699Z,35.30
2018-05-08T10:13:03.726Z,35.90
2018-05-08T10:15:30.453Z,35.20
2018-05-08T10:17:56.485Z,35.20
2018-05-08T10:20:22.461Z,33.50
2018-05-08T10:22:48.449Z,34.50
2018-05-08T10:25:15.173Z,35.00
2018-05-08T10:27:42.645Z,34.50
2018-05-08T10:30:09.361Z,35.00
2018-05-08T10:32:36.128Z,34.90
2018-05-08T10:35:02.854Z,35.00
2018-05-08T10:37:29.590Z,35.60
2018-05-08T10:39:55.590Z,34.80
2018-05-08T10:42:22.372Z,33.70
2018-05-08T10:44:49.096Z,33.60
2018-05-08T10:47:15.060Z,33.60
2018-05-08T10:49:41.033Z,32.80
2018-05-08T10:52:06.993Z,32.50
2018-05-08T10:54:32.998Z,32.60
2018-05-08T10:56:58.961Z,32.30
2018-05-08T10:59:24.964Z,33.50
2018-05-08T11:01:51.095Z,32.30
2018-05-08T11:04:17.522Z,32.40
2018-05-08T11:06:43.558Z,31.10
2018-05-08T11:09:09.557Z,31.20
2018-05-08T11:11:36.296Z,31.70
2018-05-08T11:14:03.113Z,30.50
2018-05-08T11:16:29.889Z,29.50
2018-05-08T11:18:55.969Z,29.50
2018-05-08T11:21:21.989Z,29.40
2018-05-08T11:23:47.980Z,30.00
2018-05-08T11:26:13.977Z,29.50
2018-05-08T11:28:40.712Z,29.90
2018-05-08T11:31:07.438Z,29.60
2018-05-08T11:33:33.420Z,29.60
2018-05-08T11:35:59.461Z,29.30
2018-05-08T11:38:25.461Z,29.20
2018-05-08T11:40:51.678Z,28.60
2018-05-08T11:43:17.721Z,28.70
2018-05-08T11:45:43.706Z,28.10
2018-05-08T11:48:10.450Z,27.60
2018-05-08T11:50:36.488Z,27.80
2018-05-08T11:53:02.485Z,28.20
2018-05-08T11:55:29.256Z,28.50
2018-05-08T11:57:55.257Z,28.00
2018-05-08T12:00:21.997Z,26.50
2018-05-08T12:02:48.001Z,26.40
2018-05-08T12:05:13.973Z,28.20
2018-05-08T12:07:39.953Z,28.50
2018-05-08T12:10:06.693Z,27.80
2018-05-08T12:12:32.660Z,27.80
2018-05-08T12:14:58.653Z,27.70
2018-05-08T12:17:25.386Z,27.30
2018-05-08T12:19:52.158Z,26.90
2018-05-08T12:22:18.155Z,26.90
2018-05-08T12:24:44.915Z,27.80
2018-05-08T12:27:11.501Z,27.70
2018-05-08T12:29:38.244Z,26.60
2018-05-08T12:32:04.260Z,26.50
2018-05-08T12:34:30.229Z,27.50
2018-05-08T12:36:56.948Z,26.30
2018-05-08T12:39:23.152Z,26.30
2018-05-08T12:41:49.317Z,26.70
2018-05-08T12:44:16.081Z,26.20
2018-05-08T12:46:42.079Z,26.10
2018-05-08T12:49:08.805Z,26.50
2018-05-08T12:51:34.788Z,26.40
2018-05-08T12:54:00.790Z,25.90
2018-05-08T12:56:26.798Z,25.00
2018-05-08T12:58:52.793Z,25.10
2018-05-08T13:01:18.785Z,24.20
2018-05-08T13:03:44.774Z,24.80
2018-05-08T13:06:10.764Z,24.90
2018-05-08T13:08:36.765Z,24.70
2018-05-08T13:11:02.819Z,24.70
2018-05-08T13:13:28.777Z,24.90
2018-05-08T13:15:55.492Z,25.30
2018-05-08T13:18:21.499Z,25.30
2018-05-08T13:20:47.545Z,25.60
2018-05-08T13:23:13.501Z,25.50
2018-05-08T13:25:39.598Z,24.80
2018-05-08T13:28:06.311Z,25.10
2018-05-08T13:30:34.197Z,25.10
2018-05-08T13:33:00.936Z,25.20
2018-05-08T13:35:27.682Z,25.30
2018-05-08T13:37:53.680Z,25.30
2018-05-08T13:40:20.426Z,24.70
2018-05-08T13:42:46.404Z,24.70
2018-05-08T13:45:12.406Z,24.10
2018-05-08T13:47:38.387Z,24.70
2018-05-08T13:50:04.405Z,24.60
2018-05-08T13:52:30.386Z,23.70
2018-05-08T13:54:56.486Z,22.70
2018-05-08T13:57:22.407Z,23.60
2018-05-08T13:59:49.142Z,23.30
2018-05-08T14:02:15.153Z,23.40
2018-05-08T14:04:41.896Z,24.30
2018-05-08T14:07:07.881Z,23.90
2018-05-08T14:09:33.890Z,25.70
2018-05-08T14:11:59.929Z,26.00
2018-05-08T14:14:25.917Z,26.00
2018-05-08T14:16:51.953Z,25.80
2018-05-08T14:19:18.022Z,26.20
2018-05-08T14:21:44.013Z,26.60
2018-05-08T14:24:10.017Z,26.20
2018-05-08T14:26:36.005Z,27.00
2018-05-08T14:29:01.972Z,26.40
2018-05-08T14:31:28.071Z,26.20
2018-05-08T14:33:54.689Z,26.60
2018-05-08T14:36:21.433Z,27.30
2018-05-08T14:38:47.425Z,27.40
2018-05-08T14:41:13.418Z,27.50
2018-05-08T14:43:39.407Z,27.60
2018-05-08T14:46:06.142Z,27.40
2018-05-08T14:48:32.117Z,27.30
2018-05-08T14:50:59.213Z,27.70
2018-05-08T14:53:26.197Z,27.20
2018-05-08T14:57:29.481Z,27.60
2018-05-08T14:59:56.222Z,26.80
2018-05-08T15:02:22.955Z,27.20
2018-05-08T15:04:49.163Z,27.20
2018-05-08T15:07:15.161Z,27.60
2018-05-08T15:09:41.149Z,27.60
2018-05-08T15:12:07.125Z,27.60
2018-05-08T15:14:33.134Z,27.80
2018-05-08T15:16:59.137Z,27.10
2018-05-08T15:19:25.117Z,26.60
2018-05-08T15:21:51.953Z,27.50
2018-05-08T15:24:18.601Z,27.60
2018-05-08T15:26:44.649Z,27.60
2018-05-08T15:29:11.459Z,26.90
2018-05-08T15:31:37.393Z,27.00
2018-05-08T15:34:03.352Z,26.70
2018-05-08T15:36:29.352Z,26.60
2018-05-08T15:38:55.345Z,26.20
2018-05-08T15:41:21.349Z,26.50
2018-05-08T15:43:47.410Z,26.50
2018-05-08T15:46:14.385Z,26.10
2018-05-08T15:48:40.357Z,26.10
2018-05-08T15:51:06.508Z,26.80
2018-05-08T15:53:33.249Z,27.00
2018-05-08T15:56:00.013Z,26.80
2018-05-08T15:58:26.017Z,26.80
2018-05-08T16:00:52.875Z,26.70
2018-05-08T16:03:18.840Z,26.70
2018-05-08T16:05:44.795Z,26.20
2018-05-08T16:08:10.734Z,25.90
2018-05-08T16:10:36.906Z,25.90
2018-05-08T16:13:02.870Z,26.30
2018-05-08T16:15:29.570Z,26.20
2018-05-08T16:17:55.538Z,26.10
2018-05-08T16:20:21.514Z,27.30
2018-05-08T16:22:47.640Z,27.00
2018-05-08T16:25:13.505Z,27.20
2018-05-08T16:27:40.249Z,27.50
2018-05-08T16:30:06.980Z,27.60
2018-05-08T16:32:33.726Z,27.60
2018-05-08T16:34:59.712Z,27.60
2018-05-08T16:37:25.975Z,27.60
2018-05-08T16:39:51.988Z,27.60
2018-05-08T16:42:18.733Z,28.10
2018-05-08T16:44:46.201Z,27.80
2018-05-08T16:47:12.206Z,27.80
2018-05-08T16:49:38.930Z,27.90
2018-05-08T16:52:05.029Z,28.20
2018-05-08T16:54:30.996Z,28.70
2018-05-08T16:56:57.088Z,28.90
2018-05-08T16:59:23.762Z,28.80
2018-05-08T17:01:49.785Z,28.60
2018-05-08T17:04:16.518Z,29.80
2018-05-08T17:06:42.537Z,29.20
2018-05-08T17:09:08.521Z,29.60
2018-05-08T17:11:34.534Z,29.50
2018-05-08T17:14:00.540Z,29.60
2018-05-08T17:16:26.553Z,29.40
2018-05-08T17:18:53.294Z,29.90
2018-05-08T17:21:20.039Z,29.80
2018-05-08T17:23:46.761Z,29.80
2018-05-08T17:26:12.823Z,29.80
2018-05-08T17:28:38.851Z,29.90
2018-05-08T17:31:04.861Z,30.00
2018-05-08T17:33:30.869Z,31.00
2018-05-08T17:35:56.837Z,31.70
2018-05-08T17:38:22.815Z,31.20
2018-05-08T17:40:49.546Z,32.10
2018-05-08T17:43:15.529Z,31.70
2018-05-08T17:45:42.223Z,31.90
2018-05-08T17:48:08.986Z,33.00
2018-05-08T17:50:35.197Z,33.00
2018-05-08T17:53:01.212Z,33.50
2018-05-08T17:55:27.198Z,34.30
2018-05-08T17:57:53.182Z,33.90
2018-05-08T18:00:19.889Z,34.80
2018-05-08T18:02:46.639Z,36.40
2018-05-08T18:05:13.076Z,35.60
2018-05-08T18:07:39.202Z,35.20
2018-05-08T18:10:06.066Z,36.00
2018-05-08T18:12:32.900Z,36.70
2018-05-08T18:14:58.913Z,36.60
2018-05-08T18:17:25.310Z,36.50
2018-05-08T18:19:52.173Z,37.40
2018-05-08T18:22:18.936Z,37.90
2018-05-08T18:24:44.932Z,37.80
2018-05-08T18:27:10.939Z,37.90
2018-05-08T18:29:36.917Z,39.10
2018-05-08T18:32:02.936Z,40.50
2018-05-08T18:34:29.079Z,40.70
2018-05-08T18:36:55.024Z,41.00
2018-05-08T18:39:21.017Z,41.50
2018-05-08T18:41:47.022Z,42.60
2018-05-08T18:44:13.882Z,43.10
2018-05-08T18:46:39.838Z,43.00
2018-05-08T18:49:05.813Z,44.30
2018-05-08T18:51:32.576Z,44.60
2018-05-08T18:53:58.588Z,44.50
2018-05-08T18:56:24.601Z,45.10
2018-05-08T18:58:59.014Z,45.80
2018-05-08T19:01:30.861Z,45.90
2018-05-08T19:03:56.888Z,45.90
2018-05-08T19:06:23.631Z,46.30
2018-05-08T19:08:50.365Z,47.00
2018-05-08T19:11:22.549Z,47.00
2018-05-08T19:13:49.343Z,47.60
2018-05-08T19:16:15.661Z,47.60
2018-05-08T19:18:58.214Z,47.80
2018-05-08T19:21:24.293Z,48.00
2018-05-08T19:23:56.310Z,47.60
2018-05-08T19:26:22.252Z,48.50
2018-05-08T19:28:54.930Z,48.40
2018-05-08T19:31:21.013Z,48.50
2018-05-08T19:33:47.035Z,49.10
2018-05-08T19:36:19.334Z,49.30
2018-05-08T19:38:45.375Z,49.70
2018-05-08T19:41:11.465Z,50.10
2018-05-08T19:43:37.425Z,49.20
2018-05-08T19:46:03.355Z,49.70
2018-05-08T19:48:29.368Z,50.00
2018-05-08T19:50:56.059Z,50.40
2018-05-08T19:53:22.151Z,49.60
2018-05-08T19:55:48.132Z,49.80
2018-05-08T19:58:14.106Z,50.20
2018-05-08T20:00:40.094Z,50.70
2018-05-08T20:03:08.792Z,50.80
2018-05-08T20:05:34.763Z,50.80
2018-05-08T20:08:00.942Z,50.80
2018-05-08T20:10:26.948Z,50.60
2018-05-08T20:12:53.668Z,51.30
2018-05-08T20:15:19.631Z,51.30
2018-05-08T20:17:46.371Z,51.10
2018-05-08T20:20:13.134Z,51.10
2018-05-08T20:22:39.155Z,51.10
2018-05-08T20:25:05.958Z,51.30
2018-05-08T20:27:32.697Z,51.50
2018-05-08T20:29:58.697Z,51.50
2018-05-08T20:32:24.895Z,51.00
2018-05-08T20:34:53.044Z,51.80
2018-05-08T20:39:47.345Z,51.90
2018-05-08T20:42:14.081Z,51.80
2018-05-08T20:44:40.821Z,51.80
2018-05-08T20:47:07.558Z,52.50
2018-05-08T20:49:33.586Z,52.60
2018-05-08T20:52:00.365Z,52.20
2018-05-08T20:54:26.369Z,52.20
2018-05-08T20:56:53.115Z,51.90
2018-05-08T20:59:19.234Z,51.90
2018-05-08T21:01:45.403Z,52.20
2018-05-08T21:04:12.384Z,52.20
2018-05-08T21:06:38.381Z,52.00
2018-05-08T21:09:04.415Z,52.00
2018-05-08T21:11:30.381Z,52.30
2018-05-08T21:13:57.849Z,52.80
2018-05-08T21:16:23.977Z,51.70
2018-05-08T21:18:49.981Z,52.40
2018-05-08T21:21:15.974Z,52.00
2018-05-08T21:23:42.730Z,52.80
2018-05-08T21:26:09.453Z,52.00
2018-05-08T21:28:41.636Z,52.00
2018-05-08T21:31:13.214Z,51.80
2018-05-08T21:33:39.199Z,51.80
2018-05-08T21:36:05.176Z,51.80
2018-05-08T21:38:31.164Z,52.60
2018-05-08T21:40:57.885Z,52.40
2018-05-08T21:43:23.892Z,52.50
2018-05-08T21:45:49.866Z,52.80
2018-05-08T21:48:15.872Z,52.80
2018-05-08T21:50:42.596Z,52.80
2018-05-08T21:53:08.556Z,52.80
2018-05-08T21:55:34.560Z,52.80
2018-05-08T21:58:01.281Z,52.90
2018-05-08T22:00:27.297Z,52.90
2018-05-08T22:02:53.306Z,53.20
2018-05-08T22:05:19.325Z,53.30
2018-05-08T22:07:45.327Z,54.00
2018-05-08T22:10:11.317Z,54.10
2018-05-08T22:12:38.069Z,53.50
2018-05-08T22:15:04.074Z,53.60
2018-05-08T22:17:30.796Z,54.30
2018-05-08T22:19:56.804Z,54.10
2018-05-08T22:22:22.765Z,54.00
2018-05-08T22:24:48.789Z,54.20
2018-05-08T22:27:14.745Z,54.40
2018-05-08T22:29:40.737Z,56.40
2018-05-08T22:32:06.821Z,55.90
2018-05-08T22:34:32.841Z,55.60
2018-05-08T22:36:58.869Z,55.10
2018-05-08T22:39:24.875Z,55.90
2018-05-08T22:41:51.801Z,56.30
2018-05-08T22:44:18.517Z,55.60
2018-05-08T22:46:45.241Z,56.30
2018-05-08T22:49:11.297Z,56.20
2018-05-08T22:51:38.106Z,56.20
2018-05-08T22:54:04.110Z,56.10
2018-05-08T22:56:30.918Z,57.40
2018-05-08T22:58:56.918Z,56.70
2018-05-08T23:01:23.854Z,57.30
2018-05-08T23:03:51.336Z,58.60
2018-05-08T23:06:17.982Z,58.50
2018-05-08T23:08:44.875Z,58.30
2018-05-08T23:11:11.805Z,57.90
2018-05-08T23:13:40.442Z,58.00
2018-05-08T23:16:07.606Z,57.20
2018-05-08T23:18:35.425Z,56.50
2018-05-08T23:21:01.430Z,57.10
2018-05-08T23:23:28.337Z,57.50
2018-05-08T23:25:57.205Z,57.90
2018-05-08T23:28:25.581Z,57.50
2018-05-08T23:30:52.461Z,57.70
2018-05-08T23:33:21.023Z,58.00
2018-05-08T23:35:49.737Z,58.40
2018-05-08T23:38:19.762Z,58.40
2018-05-08T23:40:46.607Z,58.60
2018-05-08T23:43:17.025Z,59.10
2018-05-08T23:45:46.795Z,59.10
2018-05-08T23:48:16.109Z,59.70
2018-05-08T23:50:44.986Z,60.10
2018-05-08T23:53:16.085Z,60.70
2018-05-08T23:55:45.535Z,60.40
2018-05-08T23:58:14.806Z,59.80
